Time;durP1;ratioP1;P1;durP2;ratioP2;P2;SDS_P1;SDS_P2;PMS_P1;PMS_P2;Temp;Humidity;BMP_temperature;BMP_pressure;BME280_temperature;BME280_humidity;BME280_pressure;Samples;Min_cycle;Max_cycle;Signal;HPM_P1;HPM_P2
2022/11/14 00:00:37;;;;;;;;;;;6.60;99.90;;;;;;4956218;28;19941;-71
2022/11/14 00:03:04;;;;;;;;;;;6.60;99.90;;;;;;4920498;28;206414;-70
2022/11/14 00:05:30;;;;;;;;;;;6.60;99.90;;;;;;4990274;28;19929;-71
2022/11/14 00:07:56;;;;;;;;;;;6.60;99.90;;;;;;4948750;28;205625;-71
2022/11/14 00:10:22;;;;;;;;;;;6.60;99.90;;;;;;4982633;28;19965;-71
2022/11/14 00:12:48;;;;;;;;;;;6.60;99.90;;;;;;4944986;28;208034;-71
2022/11/14 00:15:14;;;;;;;;;;;6.60;99.90;;;;;;4995829;28;19930;-71
2022/11/14 00:17:40;;;;;;;;;;;6.60;99.90;;;;;;4930853;28;207240;-70
2022/11/14 00:20:07;;;;;;;;;;;6.60;99.90;;;;;;5012950;28;19930;-70
2022/11/14 00:22:33;;;;;;;;;;;6.60;99.90;;;;;;4933830;28;207215;-71
2022/11/14 00:24:59;;;;;;;;;;;6.70;99.90;;;;;;5009071;28;20409;-71
2022/11/14 00:27:25;;;;;;;;;;;6.70;99.90;;;;;;4943212;28;207048;-70
2022/11/14 00:29:51;;;;;;;;;;;6.70;99.90;;;;;;5000216;28;19931;-71
2022/11/14 00:32:17;;;;;;;;;;;6.70;99.90;;;;;;4969770;28;207312;-69
2022/11/14 00:34:43;;;;;;;;;;;6.70;99.90;;;;;;5002333;28;19949;-71
2022/11/14 00:37:09;;;;;;;;;;;6.70;99.90;;;;;;4964467;28;207403;-70
2022/11/14 00:39:35;;;;;;;;;;;6.70;99.90;;;;;;4984478;28;246718;-71
2022/11/14 00:42:01;;;;;;;;;;;6.80;99.90;;;;;;4985741;28;20016;-70
2022/11/14 00:44:27;;;;;;;;;;;6.70;99.90;;;;;;4954815;28;217123;-71
2022/11/14 00:46:53;;;;;;;;;;;6.80;99.90;;;;;;4996711;28;19981;-71
2022/11/14 00:49:19;;;;;;;;;;;6.80;99.90;;;;;;4972781;28;206529;-71
2022/11/14 00:51:45;;;;;;;;;;;6.80;99.90;;;;;;4981244;28;19926;-70
2022/11/14 00:54:11;;;;;;;;;;;6.80;99.90;;;;;;4975369;28;209870;-70
2022/11/14 00:56:37;;;;;;;;;;;6.80;99.90;;;;;;4977406;28;19926;-71
2022/11/14 00:59:03;;;;;;;;;;;6.90;99.90;;;;;;4935985;28;211286;-70
2022/11/14 01:01:29;;;;;;;;;;;6.80;99.90;;;;;;4958470;28;19933;-71
2022/11/14 01:03:55;;;;;;;;;;;6.80;99.90;;;;;;4944383;28;215856;-71
2022/11/14 01:06:21;;;;;;;;;;;6.90;99.90;;;;;;4978390;28;19933;-71
2022/11/14 01:08:48;;;;;;;;;;;6.80;99.90;;;;;;4934491;28;206440;-70
2022/11/14 01:11:16;;;;;;;;;;;6.90;99.90;;;;;;4982322;28;19926;-71
2022/11/14 01:13:42;;;;;;;;;;;6.80;99.90;;;;;;4956462;28;240137;-71
2022/11/14 01:16:08;;;;;;;;;;;6.90;99.90;;;;;;4984104;28;19941;-71
2022/11/14 01:18:34;;;;;;;;;;;6.90;99.90;;;;;;4940822;28;225640;-71
2022/11/14 01:21:03;;;;;;;;;;;6.80;99.90;;;;;;4982314;28;19930;-71
2022/11/14 01:23:29;;;;;;;;;;;6.80;99.90;;;;;;4958148;28;218794;-71
2022/11/14 01:25:59;;;;;;;;;;;6.90;99.90;;;;;;4981889;28;19976;-71
2022/11/14 01:28:25;;;;;;;;;;;6.80;99.90;;;;;;4935680;28;210902;-71
2022/11/14 01:30:51;;;;;;;;;;;6.80;99.90;;;;;;4981452;28;20035;-71
2022/11/14 01:33:17;;;;;;;;;;;6.80;99.90;;;;;;4946985;28;213044;-71
2022/11/14 01:35:43;;;;;;;;;;;6.80;99.90;;;;;;4988175;28;19934;-71
2022/11/14 01:38:11;;;;;;;;;;;6.80;99.90;;;;;;4950281;28;206548;-71
2022/11/14 01:40:39;;;;;;;;;;;6.80;99.90;;;;;;5001277;28;19933;-71
2022/11/14 01:43:17;;;;;;;;;;;6.70;99.90;;;;;;4943438;28;218932;-71
2022/11/14 01:45:52;;;;;;;;;;;6.80;99.90;;;;;;4986781;28;20302;-71
2022/11/14 01:48:20;;;;;;;;;;;6.70;99.90;;;;;;4937463;28;208252;-71
2022/11/14 01:50:49;;;;;;;;;;;6.70;99.90;;;;;;4969197;28;19926;-71
2022/11/14 01:53:15;;;;;;;;;;;6.70;99.90;;;;;;4946838;28;196811;-71
2022/11/14 01:55:41;;;;;;;;;;;6.70;99.90;;;;;;4997726;28;19933;-71
2022/11/14 01:58:07;;;;;;;;;;;6.70;99.90;;;;;;4950966;28;180081;-71
2022/11/14 02:00:33;;;;;;;;;;;6.70;99.90;;;;;;4972395;28;19925;-71
2022/11/14 02:02:59;;;;;;;;;;;6.70;99.90;;;;;;4950380;28;137078;-71
2022/11/14 02:05:25;;;;;;;;;;;6.60;99.90;;;;;;4972481;28;19936;-71
2022/11/14 02:07:51;;;;;;;;;;;6.60;99.90;;;;;;4937558;28;209647;-70
2022/11/14 02:10:19;;;;;;;;;;;6.60;99.90;;;;;;5005511;28;19933;-70
2022/11/14 02:12:45;;;;;;;;;;;6.60;99.90;;;;;;4933756;28;219777;-70
2022/11/14 02:15:12;;;;;;;;;;;6.60;99.90;;;;;;4992033;28;19934;-71
2022/11/14 02:17:39;;;;;;;;;;;6.60;99.90;;;;;;4951424;28;206314;-70
2022/11/14 02:20:09;;;;;;;;;;;6.60;99.90;;;;;;4981583;28;20383;-71
2022/11/14 02:22:35;;;;;;;;;;;6.60;99.90;;;;;;4928270;28;207695;-70
2022/11/14 02:25:01;;;;;;;;;;;6.60;99.90;;;;;;5010144;28;19929;-70
2022/11/14 02:27:27;;;;;;;;;;;6.50;99.90;;;;;;4943444;28;211886;-70
2022/11/14 02:29:53;;;;;;;;;;;6.50;99.90;;;;;;5011190;28;19926;-71
2022/11/14 02:32:19;;;;;;;;;;;6.60;99.90;;;;;;4957455;28;229888;-70
2022/11/14 02:34:45;;;;;;;;;;;6.60;99.90;;;;;;4987186;28;19917;-71
2022/11/14 02:37:11;;;;;;;;;;;6.60;99.90;;;;;;4968451;28;209622;-71
2022/11/14 02:39:37;;;;;;;;;;;6.60;99.90;;;;;;4986770;28;70257;-71
2022/11/14 02:42:03;;;;;;;;;;;6.60;99.90;;;;;;5007120;28;20569;-71
2022/11/14 02:44:29;;;;;;;;;;;6.60;99.90;;;;;;4973041;28;197368;-71
2022/11/14 02:46:55;;;;;;;;;;;6.60;99.90;;;;;;4977446;28;19926;-70
2022/11/14 02:49:21;;;;;;;;;;;6.60;99.90;;;;;;4963013;28;214610;-70
2022/11/14 02:51:47;;;;;;;;;;;6.60;99.90;;;;;;4975750;28;19925;-71
2022/11/14 02:54:13;;;;;;;;;;;6.50;99.90;;;;;;4974041;28;150774;-69
2022/11/14 02:56:39;;;;;;;;;;;6.50;99.90;;;;;;5003612;28;19934;-71
2022/11/14 02:59:05;;;;;;;;;;;6.60;99.90;;;;;;4948874;28;207445;-71
2022/11/14 03:01:32;;;;;;;;;;;6.60;99.90;;;;;;4976190;28;19969;-71
2022/11/14 03:03:58;;;;;;;;;;;6.50;99.90;;;;;;4932161;28;209911;-70
2022/11/14 03:06:24;;;;;;;;;;;6.60;99.90;;;;;;4960679;28;19926;-71
2022/11/14 03:08:50;;;;;;;;;;;6.50;99.90;;;;;;4939720;28;212469;-70
2022/11/14 03:11:16;;;;;;;;;;;6.60;99.90;;;;;;4982509;28;20386;-71
2022/11/14 03:13:42;;;;;;;;;;;6.60;99.90;;;;;;4931090;28;212086;-70
2022/11/14 03:16:09;;;;;;;;;;;6.60;99.90;;;;;;5002904;28;19949;-70
2022/11/14 03:18:35;;;;;;;;;;;6.60;99.90;;;;;;4953797;28;207977;-71
2022/11/14 03:21:11;;;;;;;;;;;6.60;99.90;;;;;;4986642;28;19957;-71
2022/11/14 03:23:37;;;;;;;;;;;6.60;99.90;;;;;;4950675;28;207300;-70
2022/11/14 03:26:05;;;;;;;;;;;6.60;99.90;;;;;;4985636;28;19922;-70
2022/11/14 03:28:31;;;;;;;;;;;6.60;99.90;;;;;;4942537;28;210519;-71
2022/11/14 03:30:57;;;;;;;;;;;6.60;99.90;;;;;;4980438;28;19926;-71
2022/11/14 03:33:23;;;;;;;;;;;6.60;99.90;;;;;;4950677;28;225544;-70
2022/11/14 03:35:49;;;;;;;;;;;6.60;99.90;;;;;;4990050;28;19934;-71
2022/11/14 03:38:16;;;;;;;;;;;6.60;99.90;;;;;;4951063;28;163547;-71
2022/11/14 03:40:42;;;;;;;;;;;6.60;99.90;;;;;;4978568;28;19937;-71
2022/11/14 03:43:08;;;;;;;;;;;6.50;99.90;;;;;;4948111;28;152584;-71
2022/11/14 03:45:35;;;;;;;;;;;6.60;99.90;;;;;;4997607;28;19930;-71
2022/11/14 03:48:01;;;;;;;;;;;6.60;99.90;;;;;;4948467;28;207797;-71
2022/11/14 03:50:27;;;;;;;;;;;6.60;99.90;;;;;;4982959;28;20596;-71
2022/11/14 03:52:53;;;;;;;;;;;6.60;99.90;;;;;;4934327;28;206071;-70
2022/11/14 03:55:19;;;;;;;;;;;6.60;99.90;;;;;;4984479;28;19935;-71
2022/11/14 03:57:45;;;;;;;;;;;6.60;99.90;;;;;;4915767;28;213251;-71
2022/11/14 04:00:11;;;;;;;;;;;6.60;99.90;;;;;;4974520;28;19933;-71
2022/11/14 04:02:37;;;;;;;;;;;6.60;99.90;;;;;;4936400;28;128619;-71
2022/11/14 04:05:03;;;;;;;;;;;6.50;99.90;;;;;;4992118;28;20397;-71
2022/11/14 04:07:29;;;;;;;;;;;6.60;99.90;;;;;;4936700;28;206799;-71
2022/11/14 04:09:55;;;;;;;;;;;6.50;99.90;;;;;;4965128;28;20426;-71
2022/11/14 04:12:21;;;;;;;;;;;6.60;99.90;;;;;;4951378;28;205467;-70
2022/11/14 04:14:47;;;;;;;;;;;6.50;99.90;;;;;;4982010;28;20012;-71
2022/11/14 04:17:13;;;;;;;;;;;6.60;99.90;;;;;;4955388;28;204046;-71
2022/11/14 04:19:39;;;;;;;;;;;6.50;99.90;;;;;;4985505;28;20287;-71
2022/11/14 04:22:05;;;;;;;;;;;6.60;99.90;;;;;;4980904;28;19932;-71
2022/11/14 04:24:31;;;;;;;;;;;6.60;99.90;;;;;;4969385;28;149658;-71
2022/11/14 04:26:57;;;;;;;;;;;6.50;99.90;;;;;;4974511;28;19925;-71
2022/11/14 04:29:23;;;;;;;;;;;6.50;99.90;;;;;;4948078;28;207259;-70
2022/11/14 04:31:49;;;;;;;;;;;6.50;99.90;;;;;;4968039;28;19926;-70
2022/11/14 04:34:15;;;;;;;;;;;6.50;99.90;;;;;;4954203;28;137844;-70
2022/11/14 04:36:41;;;;;;;;;;;6.50;99.90;;;;;;4970075;28;19930;-70
2022/11/14 04:39:07;;;;;;;;;;;6.50;99.90;;;;;;4954790;28;172341;-70
2022/11/14 04:41:33;;;;;;;;;;;6.50;99.90;;;;;;4974040;28;19980;-70
2022/11/14 04:43:59;;;;;;;;;;;6.50;99.90;;;;;;4963578;28;221319;-70
2022/11/14 04:46:25;;;;;;;;;;;6.50;99.90;;;;;;4977139;28;20389;-70
2022/11/14 04:48:51;;;;;;;;;;;6.50;99.90;;;;;;4952981;28;207587;-70
2022/11/14 04:51:17;;;;;;;;;;;6.50;99.90;;;;;;4987962;28;19926;-70
2022/11/14 04:53:43;;;;;;;;;;;6.50;99.90;;;;;;4939181;28;207846;-70
2022/11/14 04:56:09;;;;;;;;;;;6.50;99.90;;;;;;4984404;28;19930;-69
2022/11/14 04:58:34;;;;;;;;;;;6.50;99.90;;;;;;4951554;28;208031;-70
2022/11/14 05:01:10;;;;;;;;;;;6.50;99.90;;;;;;4980610;28;19930;-70
2022/11/14 05:03:36;;;;;;;;;;;6.50;99.90;;;;;;4932969;28;207800;-70
2022/11/14 05:06:02;;;;;;;;;;;6.50;99.90;;;;;;4983451;28;20016;-71
2022/11/14 05:08:28;;;;;;;;;;;6.50;99.90;;;;;;4956591;28;206111;-70
2022/11/14 05:10:54;;;;;;;;;;;6.60;99.90;;;;;;4980428;28;19941;-70
2022/11/14 05:13:20;;;;;;;;;;;6.50;99.90;;;;;;4936217;28;209890;-69
2022/11/14 05:15:46;;;;;;;;;;;6.50;99.90;;;;;;4990706;28;19937;-70
2022/11/14 05:18:13;;;;;;;;;;;6.50;99.90;;;;;;4961739;28;144201;-71
2022/11/14 05:20:39;;;;;;;;;;;6.50;99.90;;;;;;4992782;28;19937;-71
2022/11/14 05:23:05;;;;;;;;;;;6.50;99.90;;;;;;4939401;28;208220;-71
2022/11/14 05:25:31;;;;;;;;;;;6.50;99.90;;;;;;4977733;28;19926;-71
2022/11/14 05:27:57;;;;;;;;;;;6.50;99.90;;;;;;4936563;28;207540;-71
2022/11/14 05:30:22;;;;;;;;;;;6.50;99.90;;;;;;4996017;28;19980;-71
2022/11/14 05:32:50;;;;;;;;;;;6.50;99.90;;;;;;4936403;28;210834;-71
2022/11/14 05:35:16;;;;;;;;;;;6.50;99.90;;;;;;5014293;28;19930;-71
2022/11/14 05:37:42;;;;;;;;;;;6.50;99.90;;;;;;4939543;28;207217;-71
2022/11/14 05:40:08;;;;;;;;;;;6.50;99.90;;;;;;5014193;28;19926;-71
2022/11/14 05:42:34;;;;;;;;;;;6.50;99.90;;;;;;4963097;28;160755;-72
2022/11/14 05:45:00;;;;;;;;;;;6.50;99.90;;;;;;4987209;28;19949;-71
2022/11/14 05:47:26;;;;;;;;;;;6.50;99.90;;;;;;4941255;28;209012;-71
2022/11/14 05:49:52;;;;;;;;;;;6.50;99.90;;;;;;5001966;28;20614;-72
2022/11/14 05:52:18;;;;;;;;;;;6.50;99.90;;;;;;4930231;28;208063;-71
2022/11/14 05:54:44;;;;;;;;;;;6.50;99.90;;;;;;5011869;28;19922;-72
2022/11/14 05:57:10;;;;;;;;;;;6.50;99.90;;;;;;4956826;28;193151;-70
2022/11/14 05:59:36;;;;;;;;;;;6.50;99.90;;;;;;4984769;28;207710;-71
2022/11/14 06:02:02;;;;;;;;;;;6.40;99.90;;;;;;4975730;28;20400;-71
2022/11/14 06:04:27;;;;;;;;;;;6.40;99.90;;;;;;4941856;28;207544;-70
2022/11/14 06:06:53;;;;;;;;;;;6.40;99.90;;;;;;4980166;28;19976;-71
2022/11/14 06:09:19;;;;;;;;;;;6.40;99.90;;;;;;4969280;28;206317;-70
2022/11/14 06:11:45;;;;;;;;;;;6.40;99.90;;;;;;4976020;28;20298;-70
2022/11/14 06:14:11;;;;;;;;;;;6.40;99.90;;;;;;4932361;28;208372;-71
2022/11/14 06:16:37;;;;;;;;;;;6.40;99.90;;;;;;4952351;28;19933;-71
2022/11/14 06:19:04;;;;;;;;;;;6.40;99.90;;;;;;4946383;28;211938;-71
2022/11/14 06:21:30;;;;;;;;;;;6.40;99.90;;;;;;4973664;28;19938;-70
2022/11/14 06:23:56;;;;;;;;;;;6.40;99.90;;;;;;4940314;28;207367;-70
2022/11/14 06:26:23;;;;;;;;;;;6.40;99.90;;;;;;4978080;28;19933;-71
2022/11/14 06:28:49;;;;;;;;;;;6.40;99.90;;;;;;4932920;28;207785;-72
2022/11/14 06:31:16;;;;;;;;;;;6.40;99.90;;;;;;4951566;28;20390;-72
2022/11/14 06:33:42;;;;;;;;;;;6.40;99.90;;;;;;4952147;28;209833;-72
2022/11/14 06:36:08;;;;;;;;;;;6.40;99.90;;;;;;4980491;28;19926;-72
2022/11/14 06:38:35;;;;;;;;;;;6.40;99.90;;;;;;4936221;28;218638;-71
2022/11/14 06:41:02;;;;;;;;;;;6.30;99.90;;;;;;4944042;28;20410;-71
2022/11/14 06:43:30;;;;;;;;;;;6.30;99.90;;;;;;4931938;28;206927;-71
2022/11/14 06:45:56;;;;;;;;;;;6.30;99.90;;;;;;4965676;28;19926;-71
2022/11/14 06:48:22;;;;;;;;;;;6.30;99.90;;;;;;4916737;28;207769;-69
2022/11/14 06:50:52;;;;;;;;;;;6.20;99.90;;;;;;4961760;28;19930;-70
2022/11/14 06:53:18;;;;;;;;;;;6.20;99.90;;;;;;4951344;28;207382;-70
2022/11/14 06:56:00;;;;;;;;;;;6.30;99.90;;;;;;4986176;28;19936;-70
2022/11/14 06:58:27;;;;;;;;;;;6.20;99.90;;;;;;4936737;28;215400;-72
2022/11/14 07:00:53;;;;;;;;;;;6.20;99.90;;;;;;4982548;28;20338;-72
2022/11/14 07:03:19;;;;;;;;;;;6.20;99.90;;;;;;4920638;28;215002;-71
2022/11/14 07:05:45;;;;;;;;;;;6.20;99.90;;;;;;4978479;28;20328;-72
2022/11/14 07:08:11;;;;;;;;;;;6.20;99.90;;;;;;4915408;28;214521;-70
2022/11/14 07:10:37;;;;;;;;;;;6.20;99.90;;;;;;4969929;28;19922;-71
2022/11/14 07:13:03;;;;;;;;;;;6.20;99.90;;;;;;4930133;28;212845;-71
2022/11/14 07:15:28;;;;;;;;;;;6.20;99.90;;;;;;4974955;28;20362;-72
2022/11/14 07:17:54;;;;;;;;;;;6.20;99.90;;;;;;4941585;28;116325;-71
2022/11/14 07:20:20;;;;;;;;;;;6.20;99.90;;;;;;4971390;28;19936;-71
2022/11/14 07:22:46;;;;;;;;;;;6.10;99.90;;;;;;4926480;28;210551;-72
2022/11/14 07:25:12;;;;;;;;;;;6.10;99.90;;;;;;4960696;28;19926;-71
2022/11/14 07:27:38;;;;;;;;;;;6.10;99.90;;;;;;4927594;28;155576;-71
2022/11/14 07:30:05;;;;;;;;;;;6.10;99.90;;;;;;4961028;28;20276;-71
2022/11/14 07:32:31;;;;;;;;;;;6.10;99.90;;;;;;4923052;28;207865;-71
2022/11/14 07:34:57;;;;;;;;;;;6.00;99.90;;;;;;4982971;28;20358;-71
2022/11/14 07:37:23;;;;;;;;;;;6.00;99.90;;;;;;4931662;28;207338;-70
2022/11/14 07:39:49;;;;;;;;;;;6.00;99.90;;;;;;4984523;28;19922;-70
2022/11/14 07:42:15;;;;;;;;;;;6.10;99.90;;;;;;4953052;28;209217;-70
2022/11/14 07:44:40;;;;;;;;;;;6.10;99.90;;;;;;4979905;28;20871;-71
2022/11/14 07:47:06;;;;;;;;;;;6.10;99.90;;;;;;4976978;28;19922;-71
2022/11/14 07:49:33;;;;;;;;;;;6.10;99.90;;;;;;4957181;28;145574;-71
2022/11/14 07:51:59;;;;;;;;;;;6.10;99.90;;;;;;4974634;28;19930;-71
2022/11/14 07:54:25;;;;;;;;;;;6.20;99.90;;;;;;4970732;28;216902;-71
2022/11/14 07:56:50;;;;;;;;;;;6.20;99.90;;;;;;4974768;28;20421;-71
2022/11/14 07:59:16;;;;;;;;;;;6.10;99.90;;;;;;4961968;28;201459;-71
2022/11/14 08:01:42;;;;;;;;;;;6.10;99.90;;;;;;4979595;28;20286;-71
2022/11/14 08:04:08;;;;;;;;;;;6.10;99.90;;;;;;4963867;28;208076;-71
2022/11/14 08:06:34;;;;;;;;;;;6.20;99.90;;;;;;4970852;28;19929;-71
2022/11/14 08:09:00;;;;;;;;;;;6.20;99.90;;;;;;4971345;28;207516;-71
2022/11/14 08:14:27;;;;;;;;;;;6.20;99.90;;;;;;4946528;28;220108;-71
2022/11/14 08:16:53;;;;;;;;;;;6.30;99.90;;;;;;4977393;28;19952;-71
2022/11/14 08:19:19;;;;;;;;;;;6.40;99.90;;;;;;4969663;28;139006;-71
2022/11/14 08:21:45;;;;;;;;;;;6.40;99.90;;;;;;4988983;28;19925;-72
2022/11/14 08:24:11;;;;;;;;;;;6.50;99.90;;;;;;4953185;28;138641;-72
2022/11/14 08:26:38;;;;;;;;;;;6.50;99.90;;;;;;4964739;28;19926;-72
2022/11/14 08:29:04;;;;;;;;;;;6.50;99.90;;;;;;4920900;28;213024;-72
2022/11/14 08:31:30;;;;;;;;;;;6.60;99.90;;;;;;4952966;28;19926;-71
2022/11/14 08:33:56;;;;;;;;;;;6.60;99.90;;;;;;4964401;28;132887;-72
2022/11/14 08:36:22;;;;;;;;;;;6.60;99.90;;;;;;4957956;28;19930;-71
2022/11/14 08:38:48;;;;;;;;;;;6.70;99.90;;;;;;4957598;28;105073;-71
2022/11/14 08:41:13;;;;;;;;;;;6.80;99.90;;;;;;4990854;28;19973;-72
2022/11/14 08:43:39;;;;;;;;;;;6.80;99.90;;;;;;4937612;28;208107;-71
2022/11/14 08:46:05;;;;;;;;;;;6.80;99.90;;;;;;4969986;28;19926;-71
2022/11/14 08:48:31;;;;;;;;;;;6.90;99.90;;;;;;4959839;28;117276;-71
2022/11/14 08:51:01;;;;;;;;;;;6.90;99.90;;;;;;4979798;28;20287;-72
2022/11/14 08:53:27;;;;;;;;;;;7.00;99.90;;;;;;4955444;28;209308;-72
2022/11/14 08:55:53;;;;;;;;;;;7.00;99.90;;;;;;4989217;28;19953;-71
2022/11/14 08:58:19;;;;;;;;;;;7.10;99.90;;;;;;4934876;28;208119;-72
2022/11/14 09:00:45;;;;;;;;;;;7.10;99.90;;;;;;4968475;28;20292;-71
2022/11/14 09:03:13;;;;;;;;;;;7.10;99.90;;;;;;4934829;28;121075;-71
2022/11/14 09:05:39;;;;;;;;;;;7.20;99.90;;;;;;4995969;28;19930;-71
2022/11/14 09:08:05;;;;;;;;;;;7.20;99.90;;;;;;4943013;28;207153;-72
2022/11/14 09:10:31;;;;;;;;;;;7.20;99.90;;;;;;4992313;28;20389;-72
2022/11/14 09:12:57;;;;;;;;;;;7.20;99.90;;;;;;4940410;28;207540;-72
2022/11/14 09:15:23;;;;;;;;;;;7.30;99.90;;;;;;5007100;28;19933;-72
2022/11/14 09:17:53;;;;;;;;;;;7.30;99.90;;;;;;4952392;28;190011;-71
2022/11/14 09:20:19;;;;;;;;;;;7.30;99.90;;;;;;4988514;28;20306;-71
2022/11/14 09:22:45;;;;;;;;;;;7.30;99.90;;;;;;4943770;28;210731;-71
2022/11/14 09:25:11;;;;;;;;;;;7.40;99.90;;;;;;5005602;28;19930;-72
2022/11/14 09:27:37;;;;;;;;;;;7.40;99.90;;;;;;4934510;28;207105;-71
2022/11/14 09:30:04;;;;;;;;;;;7.40;99.90;;;;;;5019300;28;19925;-72
2022/11/14 09:32:30;;;;;;;;;;;7.30;99.90;;;;;;4958417;28;216622;-71
2022/11/14 09:34:56;;;;;;;;;;;7.30;99.90;;;;;;5013029;28;19959;-72
2022/11/14 09:37:22;;;;;;;;;;;7.30;99.90;;;;;;4956949;28;209673;-72
2022/11/14 09:39:48;;;;;;;;;;;7.30;99.90;;;;;;5009848;28;19926;-72
2022/11/14 09:42:23;;;;;;;;;;;7.30;99.90;;;;;;4950786;28;215452;-69
2022/11/14 09:44:52;;;;;;;;;;;7.30;99.90;;;;;;4980537;28;19933;-71
2022/11/14 09:47:20;;;;;;;;;;;7.30;99.90;;;;;;4937201;28;216930;-68
2022/11/14 09:49:48;;;;;;;;;;;7.30;99.90;;;;;;5012563;28;19933;-71
2022/11/14 09:52:35;;;;;;;;;;;7.40;99.90;;;;;;4948664;28;207777;-70
2022/11/14 09:55:04;;;;;;;;;;;7.40;99.90;;;;;;4993544;28;19937;-72
2022/11/14 09:57:30;;;;;;;;;;;7.40;99.90;;;;;;4928670;28;205717;-72
2022/11/14 09:59:56;;;;;;;;;;;7.50;99.90;;;;;;5011962;28;19926;-72
2022/11/14 10:02:43;;;;;;;;;;;7.50;99.90;;;;;;4917763;28;210693;-71
2022/11/14 10:05:47;;;;;;;;;;;7.50;99.90;;;;;;4994677;28;20660;-71
2022/11/14 10:08:14;;;;;;;;;;;7.50;99.90;;;;;;4917860;28;207767;-72
2022/11/14 10:10:53;;;;;;;;;;;7.60;99.90;;;;;;4965969;28;19926;-71
2022/11/14 10:13:22;;;;;;;;;;;7.60;99.90;;;;;;4920024;28;205300;-72
2022/11/14 10:15:47;;;;;;;;;;;7.60;99.90;;;;;;4968860;28;19922;-72
2022/11/14 10:18:26;;;;;;;;;;;7.70;99.90;;;;;;4922274;28;208309;-73
2022/11/14 10:20:53;;;;;;;;;;;7.70;99.90;;;;;;4956903;28;19922;-72
2022/11/14 10:23:37;;;;;;;;;;;7.80;99.90;;;;;;4897634;28;170993;-72
2022/11/14 10:26:12;;;;;;;;;;;7.80;99.90;;;;;;4949210;28;19926;-72
2022/11/14 10:28:41;;;;;;;;;;;7.80;99.90;;;;;;4905148;28;111875;-73
2022/11/14 10:31:15;;;;;;;;;;;7.80;99.90;;;;;;4936563;29;20442;-73
2022/11/14 10:33:49;;;;;;;;;;;7.80;99.90;;;;;;4904761;28;207434;-72
2022/11/14 10:36:44;;;;;;;;;;;7.90;99.90;;;;;;4966224;28;19972;-72
2022/11/14 10:39:15;;;;;;;;;;;7.90;99.90;;;;;;4890703;28;124856;-72
2022/11/14 10:41:41;;;;;;;;;;;8.00;99.90;;;;;;4930876;29;19970;-72
2022/11/14 10:44:11;;;;;;;;;;;8.10;99.90;;;;;;4896439;28;144630;-72
2022/11/14 10:46:40;;;;;;;;;;;8.20;99.90;;;;;;4950462;28;19922;-72
2022/11/14 10:49:14;;;;;;;;;;;8.30;99.90;;;;;;4913907;28;114626;-72
2022/11/14 10:51:45;;;;;;;;;;;8.30;99.90;;;;;;4944790;28;19970;-72
2022/11/14 10:54:20;;;;;;;;;;;8.40;99.90;;;;;;4923367;28;142984;-72
2022/11/14 10:56:46;;;;;;;;;;;8.40;99.90;;;;;;4951288;28;19930;-72
2022/11/14 10:59:13;;;;;;;;;;;8.50;99.90;;;;;;4908908;28;196150;-72
2022/11/14 11:01:43;;;;;;;;;;;8.60;99.90;;;;;;4947105;28;19937;-72
2022/11/14 11:04:13;;;;;;;;;;;8.60;99.90;;;;;;4907102;28;208021;-72
2022/11/14 11:06:39;;;;;;;;;;;8.60;99.90;;;;;;4934186;29;19926;-73
2022/11/14 11:11:57;;;;;;;;;;;8.70;99.90;;;;;;4949070;28;19927;-72
2022/11/14 11:14:24;;;;;;;;;;;8.70;99.90;;;;;;4918080;28;246332;-73
2022/11/14 11:17:06;;;;;;;;;;;8.70;99.90;;;;;;4988855;28;19933;-73
2022/11/14 11:19:32;;;;;;;;;;;8.80;99.90;;;;;;4974320;28;134997;-73
2022/11/14 11:21:58;;;;;;;;;;;8.70;99.90;;;;;;4984131;28;19922;-72
2022/11/14 11:24:30;;;;;;;;;;;8.70;99.90;;;;;;4964341;28;218862;-73
2022/11/14 11:27:14;;;;;;;;;;;8.80;99.90;;;;;;5001235;28;19926;-73
2022/11/14 11:29:40;;;;;;;;;;;8.80;99.90;;;;;;4927766;28;206395;-72
2022/11/14 11:32:07;;;;;;;;;;;8.70;99.90;;;;;;4949442;28;19933;-73
2022/11/14 11:34:33;;;;;;;;;;;8.70;99.90;;;;;;4947425;28;271491;-72
2022/11/14 11:37:17;;;;;;;;;;;8.70;99.90;;;;;;4970026;28;19930;-73
2022/11/14 11:40:09;;;;;;;;;;;8.70;99.90;;;;;;4922635;28;206039;-72
2022/11/14 11:42:37;;;;;;;;;;;8.60;99.90;;;;;;4939379;28;190011;-72
2022/11/14 11:45:04;;;;;;;;;;;8.70;99.90;;;;;;5008194;28;19933;-72
2022/11/14 11:47:32;;;;;;;;;;;8.70;99.90;;;;;;4931799;28;207111;-72
2022/11/14 11:50:01;;;;;;;;;;;8.80;99.90;;;;;;4970023;28;19926;-72
2022/11/14 11:52:32;;;;;;;;;;;8.70;99.90;;;;;;4914087;28;207024;-72
2022/11/14 11:55:08;;;;;;;;;;;8.70;99.90;;;;;;4946501;28;20299;-73
2022/11/14 11:57:52;;;;;;;;;;;8.70;99.90;;;;;;4910182;28;210877;-72
2022/11/14 12:00:21;;;;;;;;;;;9.00;99.90;;;;;;4989454;28;19933;-73
2022/11/14 12:02:49;;;;;;;;;;;10.50;99.90;;;;;;4922306;28;207540;-73
2022/11/14 12:05:16;;;;;;;;;;;11.70;99.90;;;;;;4990094;28;19933;-72
2022/11/14 12:08:03;;;;;;;;;;;12.60;99.90;;;;;;4923342;28;215786;-72
2022/11/14 12:10:31;;;;;;;;;;;13.40;99.90;;;;;;4949262;28;19933;-73
2022/11/14 12:13:06;;;;;;;;;;;14.00;99.90;;;;;;4910566;28;217870;-74
2022/11/14 12:15:51;;;;;;;;;;;14.60;99.90;;;;;;4982998;28;20410;-73
2022/11/14 12:18:25;;;;;;;;;;;15.20;99.90;;;;;;4915345;28;227000;-73
2022/11/14 12:21:01;;;;;;;;;;;15.70;99.90;;;;;;4966808;28;19926;-73
2022/11/14 12:23:32;;;;;;;;;;;16.20;99.90;;;;;;4943665;28;210172;-73
2022/11/14 12:25:58;;;;;;;;;;;16.80;99.90;;;;;;4984095;28;19926;-73
2022/11/14 12:28:27;;;;;;;;;;;17.40;99.90;;;;;;4968464;28;139269;-73
2022/11/14 12:30:56;;;;;;;;;;;18.00;99.90;;;;;;4985806;28;19922;-73
2022/11/14 12:33:27;;;;;;;;;;;18.50;99.90;;;;;;4947778;28;208357;-73
2022/11/14 12:35:58;;;;;;;;;;;18.80;99.90;;;;;;4996475;28;19929;-73
2022/11/14 12:38:25;;;;;;;;;;;18.90;97.10;;;;;;4964075;28;144047;-72
2022/11/14 12:40:56;;;;;;;;;;;18.70;96.90;;;;;;4991099;28;20298;-73
2022/11/14 12:43:25;;;;;;;;;;;18.60;97.20;;;;;;4947637;28;223510;-73
2022/11/14 12:45:51;;;;;;;;;;;18.70;97.40;;;;;;5013366;28;19926;-72
2022/11/14 12:48:26;;;;;;;;;;;19.10;97.70;;;;;;4934084;28;171157;-73
2022/11/14 12:50:52;;;;;;;;;;;19.20;95.30;;;;;;4972811;28;20413;-72
2022/11/14 12:53:36;;;;;;;;;;;19.10;95.80;;;;;;4935464;28;210838;-72
2022/11/14 12:56:08;;;;;;;;;;;19.20;96.20;;;;;;4975617;28;20404;-72
2022/11/14 12:58:43;;;;;;;;;;;19.40;96.70;;;;;;4927873;28;207472;-72
2022/11/14 13:01:09;;;;;;;;;;;19.90;96.50;;;;;;4964217;28;19954;-72
2022/11/14 13:03:58;;;;;;;;;;;20.40;96.00;;;;;;4944463;28;206085;-72
2022/11/14 13:06:33;;;;;;;;;;;20.80;95.90;;;;;;4987604;28;19933;-72
2022/11/14 13:09:17;;;;;;;;;;;21.10;95.70;;;;;;4946896;28;222847;-72
2022/11/14 13:23:23;;;;;;;;;;;21.20;92.50;;;;;;4934013;28;216898;-73
2022/11/14 13:26:08;;;;;;;;;;;20.80;92.50;;;;;;4982230;28;19933;-72
2022/11/14 13:28:37;;;;;;;;;;;20.90;92.90;;;;;;4959960;28;210045;-73
2022/11/14 13:31:06;;;;;;;;;;;20.70;92.40;;;;;;4986263;28;19926;-71
2022/11/14 13:33:42;;;;;;;;;;;20.50;91.70;;;;;;4953537;28;170004;-72
2022/11/14 13:36:10;;;;;;;;;;;20.10;91.60;;;;;;5000509;28;19937;-73
2022/11/14 13:38:56;;;;;;;;;;;19.90;92.40;;;;;;4937239;28;137775;-73
2022/11/14 13:41:34;;;;;;;;;;;19.90;92.20;;;;;;4976571;28;19937;-72
2022/11/14 13:44:06;;;;;;;;;;;19.70;91.60;;;;;;4945680;28;181477;-72
2022/11/14 13:46:51;;;;;;;;;;;19.60;92.40;;;;;;4970384;28;19922;-72
2022/11/14 13:49:17;;;;;;;;;;;19.50;92.20;;;;;;4968415;28;201247;-73
2022/11/14 13:51:44;;;;;;;;;;;19.10;92.10;;;;;;4986716;28;19929;-72
2022/11/14 13:54:14;;;;;;;;;;;19.10;93.40;;;;;;4969216;28;192531;-72
2022/11/14 13:56:49;;;;;;;;;;;19.10;92.30;;;;;;4972683;28;19941;-72
2022/11/14 13:59:20;;;;;;;;;;;19.10;93.50;;;;;;4972331;28;173450;-72
2022/11/14 14:02:05;;;;;;;;;;;18.70;92.50;;;;;;5000268;28;19929;-72
2022/11/14 14:04:50;;;;;;;;;;;18.40;93.00;;;;;;4960356;28;200296;-72
2022/11/14 14:07:16;;;;;;;;;;;18.40;92.80;;;;;;4944310;28;206574;-71
2022/11/14 14:10:01;;;;;;;;;;;18.30;93.60;;;;;;4973364;28;20386;-72
2022/11/14 14:12:29;;;;;;;;;;;18.50;93.60;;;;;;4920864;28;212797;-71
2022/11/14 14:15:14;;;;;;;;;;;18.50;93.20;;;;;;4988258;28;19924;-72
2022/11/14 14:17:52;;;;;;;;;;;18.50;93.50;;;;;;4924558;28;218501;-71
2022/11/14 14:20:37;;;;;;;;;;;17.40;93.80;;;;;;4987917;28;19930;-72
2022/11/14 14:23:15;;;;;;;;;;;16.50;94.20;;;;;;4938271;28;207325;-72
2022/11/14 14:25:41;;;;;;;;;;;15.70;94.90;;;;;;4991036;28;20570;-71
2022/11/14 14:28:15;;;;;;;;;;;14.90;95.40;;;;;;4946159;28;225612;-71
2022/11/14 14:30:59;;;;;;;;;;;14.30;96.00;;;;;;4994872;28;19922;-71
2022/11/14 14:33:25;;;;;;;;;;;13.90;96.70;;;;;;4950222;28;209493;-71
2022/11/14 14:35:52;;;;;;;;;;;13.40;97.30;;;;;;4987339;28;20501;-72
2022/11/14 14:38:25;;;;;;;;;;;13.00;97.70;;;;;;4925752;28;208202;-71
2022/11/14 14:40:52;;;;;;;;;;;12.70;98.30;;;;;;4998094;28;20287;-71
2022/11/14 14:43:29;;;;;;;;;;;12.30;98.80;;;;;;4939565;28;184303;-72
2022/11/14 14:45:55;;;;;;;;;;;12.00;99.40;;;;;;4960451;28;19929;-73